createdAt,value
2024-04-18T00:00:52.483Z,0.00
2024-04-18T00:01:52.426Z,0.00
2024-04-18T00:02:52.400Z,0.00
2024-04-18T00:03:52.500Z,0.00
2024-04-18T00:04:52.511Z,0.00
2024-04-18T00:05:52.361Z,0.00
2024-04-18T00:06:52.404Z,0.00
2024-04-18T00:07:52.344Z,0.00
2024-04-18T00:08:52.346Z,0.00
2024-04-18T00:09:52.336Z,0.00
2024-04-18T00:10:52.323Z,0.00
2024-04-18T00:11:52.310Z,0.00
2024-04-18T00:12:52.298Z,0.00
2024-04-18T00:13:52.281Z,0.00
2024-04-18T00:14:52.305Z,0.00
2024-04-18T00:15:52.317Z,0.00
2024-04-18T00:16:52.253Z,0.00
2024-04-18T00:17:52.304Z,0.00
2024-04-18T00:18:52.251Z,0.00
2024-04-18T00:19:52.221Z,0.00
2024-04-18T00:20:52.239Z,0.00
2024-04-18T00:21:52.233Z,0.00
2024-04-18T00:22:52.194Z,0.00
2024-04-18T00:23:52.197Z,0.00
2024-04-18T00:24:52.205Z,0.00
2024-04-18T00:25:52.189Z,0.00
2024-04-18T00:26:52.162Z,0.00
2024-04-18T00:27:52.225Z,0.00
2024-04-18T00:28:52.149Z,0.00
2024-04-18T00:29:52.132Z,0.00
2024-04-18T00:30:52.150Z,0.00
2024-04-18T00:31:52.125Z,0.00
2024-04-18T00:32:52.149Z,0.00
2024-04-18T00:33:52.176Z,0.00
2024-04-18T00:34:52.081Z,0.00
2024-04-18T00:35:52.072Z,0.00
2024-04-18T00:36:52.118Z,0.00
2024-04-18T00:37:52.060Z,0.00
2024-04-18T00:38:52.110Z,0.00
2024-04-18T00:39:52.180Z,0.00
2024-04-18T00:40:52.053Z,0.00
2024-04-18T00:41:52.011Z,0.00
2024-04-18T00:42:52.054Z,0.00
2024-04-18T00:43:51.992Z,0.00
2024-04-18T00:44:51.989Z,0.00
2024-04-18T00:45:52.072Z,0.00
2024-04-18T00:46:51.962Z,0.00
2024-04-18T00:47:52.012Z,0.00
2024-04-18T00:48:52.061Z,0.00
2024-04-18T00:49:51.936Z,0.00
2024-04-18T00:50:51.955Z,0.00
2024-04-18T00:51:51.922Z,0.00
2024-04-18T00:52:51.903Z,0.00
2024-04-18T00:53:51.929Z,0.00
2024-04-18T00:54:51.882Z,0.00
2024-04-18T00:55:51.871Z,0.00
2024-04-18T00:56:51.890Z,0.00
2024-04-18T00:57:51.879Z,0.00
2024-04-18T00:58:51.876Z,0.00
2024-04-18T00:59:51.866Z,0.00
2024-04-18T01:00:51.940Z,0.00
2024-04-18T01:01:51.828Z,0.00
2024-04-18T01:02:51.810Z,0.00
2024-04-18T01:03:51.919Z,0.00
2024-04-18T01:04:51.825Z,0.00
2024-04-18T01:05:51.793Z,0.00
2024-04-18T01:06:51.781Z,0.00
2024-04-18T01:07:51.773Z,0.00
2024-04-18T01:08:51.748Z,0.00
2024-04-18T01:09:51.771Z,0.00
2024-04-18T01:10:51.756Z,0.00
2024-04-18T01:11:51.747Z,0.00
2024-04-18T01:12:51.749Z,0.00
2024-04-18T01:13:51.701Z,0.00
2024-04-18T01:14:51.702Z,0.00
2024-04-18T01:15:51.717Z,0.00
2024-04-18T01:16:51.692Z,0.00
2024-04-18T01:17:51.716Z,0.00
2024-04-18T01:18:51.680Z,0.00
2024-04-18T01:19:51.647Z,0.00
2024-04-18T01:20:51.648Z,0.00
2024-04-18T01:21:51.682Z,0.00
2024-04-18T01:22:51.637Z,0.00
2024-04-18T01:23:51.617Z,0.00
2024-04-18T01:24:51.661Z,0.00
2024-04-18T01:25:51.584Z,0.00
2024-04-18T01:26:51.596Z,0.00
2024-04-18T01:27:51.633Z,0.00
2024-04-18T01:28:51.563Z,0.00
2024-04-18T01:29:51.550Z,0.00
2024-04-18T01:30:51.581Z,0.00
2024-04-18T01:31:51.533Z,0.00
2024-04-18T01:32:51.618Z,0.00
2024-04-18T01:33:51.539Z,0.00
2024-04-18T01:34:51.503Z,0.00
2024-04-18T01:35:51.499Z,0.00
2024-04-18T01:36:51.494Z,0.00
2024-04-18T01:37:51.469Z,0.00
2024-04-18T01:38:51.486Z,0.00
2024-04-18T01:39:51.506Z,0.00
2024-04-18T01:40:51.439Z,0.00
2024-04-18T01:41:51.429Z,0.00
2024-04-18T01:42:51.429Z,0.00
2024-04-18T01:43:51.432Z,0.00
2024-04-18T01:44:51.406Z,0.00
2024-04-18T01:45:51.449Z,0.00
2024-04-18T01:46:51.388Z,0.00
2024-04-18T01:47:51.422Z,0.00
2024-04-18T01:48:51.404Z,0.00
2024-04-18T01:49:51.371Z,0.00
2024-04-18T01:50:51.383Z,0.00
2024-04-18T01:51:51.401Z,0.00
2024-04-18T01:52:51.342Z,0.00
2024-04-18T01:53:51.311Z,0.00
2024-04-18T01:54:51.346Z,0.00
2024-04-18T01:55:51.294Z,0.00
2024-04-18T01:56:51.289Z,0.00
2024-04-18T01:57:51.332Z,0.00
2024-04-18T01:58:51.293Z,0.00
2024-04-18T01:59:51.260Z,0.00
2024-04-18T02:00:51.367Z,0.00
2024-04-18T02:01:52.234Z,0.00
2024-04-18T02:02:51.262Z,0.00
2024-04-18T02:03:51.251Z,0.00
2024-04-18T02:04:51.235Z,0.00
2024-04-18T02:05:51.196Z,0.00
2024-04-18T02:06:51.190Z,0.00
2024-04-18T02:07:51.203Z,0.00
2024-04-18T02:08:51.203Z,0.00
2024-04-18T02:09:51.228Z,0.00
2024-04-18T02:10:51.234Z,0.00
2024-04-18T02:11:51.132Z,0.00
2024-04-18T02:12:51.196Z,0.00
2024-04-18T02:13:51.132Z,0.00
2024-04-18T02:14:51.110Z,0.00
2024-04-18T02:15:51.203Z,0.00
2024-04-18T02:16:51.096Z,0.00
2024-04-18T02:17:51.132Z,0.00
2024-04-18T02:18:51.157Z,0.00
2024-04-18T02:19:51.070Z,0.00
2024-04-18T02:20:51.053Z,0.00
2024-04-18T02:21:51.072Z,0.00
2024-04-18T02:22:51.052Z,0.00
2024-04-18T02:23:51.050Z,0.00
2024-04-18T02:24:51.054Z,0.00
2024-04-18T02:25:51.006Z,0.00
2024-04-18T02:26:50.997Z,0.00
2024-04-18T02:27:51.052Z,0.00
2024-04-18T02:28:50.988Z,0.00
2024-04-18T02:29:50.968Z,0.00
2024-04-18T02:30:50.965Z,0.00
2024-04-18T02:31:50.983Z,0.00
2024-04-18T02:32:50.972Z,0.00
2024-04-18T02:33:51.293Z,0.00
2024-04-18T02:34:50.914Z,0.00
2024-04-18T02:35:50.916Z,0.00
2024-04-18T02:36:50.950Z,0.00
2024-04-18T02:37:50.906Z,0.00
2024-04-18T02:38:50.873Z,0.00
2024-04-18T02:39:50.934Z,0.00
2024-04-18T02:40:50.857Z,0.00
2024-04-18T02:41:50.867Z,0.00
2024-04-18T02:42:50.921Z,0.00
2024-04-18T02:43:50.833Z,0.00
2024-04-18T02:44:50.836Z,0.00
2024-04-18T02:45:50.901Z,0.00
2024-04-18T02:46:50.804Z,0.00
2024-04-18T02:47:50.969Z,0.00
2024-04-18T02:48:50.785Z,0.00
2024-04-18T02:49:50.776Z,0.00
2024-04-18T02:50:50.770Z,0.00
2024-04-18T02:51:50.807Z,0.00
2024-04-18T02:52:50.740Z,0.00
2024-04-18T02:53:50.757Z,0.00
2024-04-18T02:54:50.774Z,0.00
2024-04-18T02:55:50.716Z,0.00
2024-04-18T02:56:50.715Z,0.00
2024-04-18T02:57:50.752Z,0.00
2024-04-18T02:58:50.706Z,0.00
2024-04-18T02:59:50.679Z,0.00
2024-04-18T03:00:50.815Z,0.00
2024-04-18T03:01:50.649Z,0.00
2024-04-18T03:02:50.679Z,0.00
2024-04-18T03:03:50.857Z,0.00
2024-04-18T03:04:50.649Z,0.00
2024-04-18T03:05:50.639Z,0.00
2024-04-18T03:06:50.618Z,0.00
2024-04-18T03:07:50.632Z,0.00
2024-04-18T03:08:50.592Z,0.00
2024-04-18T03:09:50.629Z,0.00
2024-04-18T03:10:50.562Z,0.00
2024-04-18T03:11:50.591Z,0.00
2024-04-18T03:12:50.595Z,0.00
2024-04-18T03:13:50.546Z,0.00
2024-04-18T03:14:50.558Z,0.00
2024-04-18T03:15:51.588Z,0.00
2024-04-18T03:16:50.518Z,0.00
2024-04-18T03:17:50.595Z,0.00
2024-04-18T03:18:50.534Z,0.00
2024-04-18T03:19:50.492Z,0.00
2024-04-18T03:20:50.469Z,0.00
2024-04-18T03:21:50.479Z,4.00
2024-04-18T03:22:50.442Z,4.00
2024-04-18T03:23:50.465Z,4.00
2024-04-18T03:24:50.487Z,4.00
2024-04-18T03:25:50.422Z,0.00
2024-04-18T03:26:50.415Z,0.00
2024-04-18T03:27:50.442Z,0.00
2024-04-18T03:28:50.384Z,0.00
2024-04-18T03:29:50.373Z,0.00
2024-04-18T03:30:50.424Z,0.00
2024-04-18T03:31:50.393Z,0.00
2024-04-18T03:32:50.399Z,0.00
2024-04-18T03:33:50.391Z,0.00
2024-04-18T03:34:50.351Z,0.00
2024-04-18T03:35:50.313Z,0.00
2024-04-18T03:36:50.358Z,0.00
2024-04-18T03:37:50.303Z,0.00
2024-04-18T03:38:50.299Z,0.00
2024-04-18T03:39:50.380Z,0.00
2024-04-18T03:40:50.282Z,0.00
2024-04-18T03:41:50.280Z,0.00
2024-04-18T03:42:50.264Z,0.00
2024-04-18T03:43:50.232Z,0.00
2024-04-18T03:44:50.229Z,0.00
2024-04-18T03:45:50.322Z,0.00
2024-04-18T03:46:50.204Z,0.00
2024-04-18T03:47:50.230Z,0.00
2024-04-18T03:48:50.214Z,0.00
2024-04-18T03:49:50.196Z,0.00
2024-04-18T03:50:50.174Z,0.00
2024-04-18T03:51:50.283Z,0.00
2024-04-18T03:52:50.143Z,0.00
2024-04-18T03:53:50.140Z,4.00
2024-04-18T03:55:00.717Z,4.00
2024-04-18T03:55:52.118Z,0.00
2024-04-18T03:56:50.103Z,0.00
2024-04-18T03:57:50.132Z,0.00
2024-04-18T03:58:50.090Z,4.00
2024-04-18T03:59:50.076Z,0.00
2024-04-18T04:00:50.168Z,4.00
2024-04-18T04:01:50.089Z,4.00
2024-04-18T04:02:50.049Z,4.00
2024-04-18T04:03:50.076Z,8.00
2024-04-18T04:04:50.024Z,8.00
2024-04-18T04:05:50.037Z,8.00
2024-04-18T04:06:50.013Z,8.00
2024-04-18T04:07:49.995Z,8.00
2024-04-18T04:08:49.982Z,8.00
2024-04-18T04:09:50.032Z,8.00
2024-04-18T04:10:49.976Z,12.00
2024-04-18T04:11:49.953Z,12.00
2024-04-18T04:12:49.989Z,16.00
2024-04-18T04:13:49.930Z,16.00
2024-04-18T04:14:49.942Z,16.00
2024-04-18T04:15:49.968Z,24.00
2024-04-18T04:16:49.907Z,20.00
2024-04-18T04:17:49.935Z,24.00
2024-04-18T04:18:49.982Z,28.00
2024-04-18T04:19:49.886Z,36.00
2024-04-18T04:20:49.889Z,44.00
2024-04-18T04:21:49.966Z,44.00
2024-04-18T04:22:49.854Z,48.00
2024-04-18T04:23:49.879Z,52.00
2024-04-18T04:24:49.918Z,60.00
2024-04-18T04:25:49.848Z,64.00
2024-04-18T04:26:49.857Z,64.00
2024-04-18T04:27:49.914Z,76.00
2024-04-18T04:28:49.823Z,84.00
2024-04-18T04:29:49.780Z,92.00
2024-04-18T04:30:49.885Z,112.00
2024-04-18T04:31:49.923Z,128.00
2024-04-18T04:32:49.765Z,144.00
2024-04-18T04:33:49.867Z,152.00
2024-04-18T04:34:49.732Z,160.00
2024-04-18T04:35:49.785Z,176.00
2024-04-18T04:36:49.814Z,204.00
2024-04-18T04:37:49.700Z,236.00
2024-04-18T04:38:49.692Z,260.00
2024-04-18T04:39:49.730Z,260.00
2024-04-18T04:40:49.690Z,260.00
2024-04-18T04:41:49.671Z,284.00
2024-04-18T04:42:49.723Z,308.00
2024-04-18T04:43:49.652Z,324.00
2024-04-18T04:44:49.672Z,332.00
2024-04-18T04:45:49.673Z,332.00
2024-04-18T04:46:49.638Z,348.00
2024-04-18T04:47:49.681Z,384.00
2024-04-18T04:48:49.780Z,416.00
2024-04-18T04:49:49.599Z,416.00
2024-04-18T04:50:49.576Z,400.00
2024-04-18T04:51:49.661Z,400.00
2024-04-18T04:52:49.558Z,416.00
2024-04-18T04:53:52.044Z,424.00
2024-04-18T04:54:49.571Z,424.00
2024-04-18T04:55:49.546Z,436.00
2024-04-18T04:56:49.527Z,480.00
2024-04-18T04:57:49.563Z,532.00
2024-04-18T04:58:49.505Z,568.00
2024-04-18T04:59:49.497Z,564.00
2024-04-18T05:00:49.615Z,548.00
2024-04-18T05:01:49.532Z,548.00
2024-04-18T05:02:50.090Z,552.00
2024-04-18T05:03:50.591Z,548.00
2024-04-18T05:04:49.438Z,560.00
2024-04-18T05:05:49.430Z,572.00
2024-04-18T05:06:49.532Z,564.00
2024-04-18T05:07:51.373Z,564.00
2024-04-18T05:08:49.409Z,588.00
2024-04-18T05:09:49.466Z,616.00
2024-04-18T05:10:49.413Z,628.00
2024-04-18T05:11:49.377Z,652.00
2024-04-18T05:12:49.432Z,712.00
2024-04-18T05:13:49.347Z,800.00
2024-04-18T05:14:49.345Z,908.00
2024-04-18T05:15:49.367Z,988.00
2024-04-18T05:16:49.476Z,1048.00
2024-04-18T05:17:49.325Z,1104.00
2024-04-18T05:18:49.400Z,1252.00
2024-04-18T05:19:49.302Z,1368.00
2024-04-18T05:20:49.284Z,1456.00
2024-04-18T05:21:49.368Z,1488.00
2024-04-18T05:22:49.297Z,1504.00
2024-04-18T05:23:49.281Z,1524.00
2024-04-18T05:24:49.450Z,1492.00
2024-04-18T05:25:49.256Z,1412.00
2024-04-18T05:26:49.234Z,1332.00
2024-04-18T05:27:49.330Z,1304.00
2024-04-18T05:28:49.235Z,1340.00
2024-04-18T05:29:49.210Z,1436.00
2024-04-18T05:30:49.216Z,1496.00
2024-04-18T05:31:49.180Z,1460.00
2024-04-18T05:32:49.373Z,1360.00
2024-04-18T05:33:49.190Z,1304.00
2024-04-18T05:34:49.145Z,1324.00
2024-04-18T05:35:49.146Z,1416.00
2024-04-18T05:36:49.357Z,1492.00
2024-04-18T05:37:49.115Z,1600.00
2024-04-18T05:38:49.144Z,1644.00
2024-04-18T05:39:49.108Z,1620.00
2024-04-18T05:40:49.094Z,1652.00
2024-04-18T05:41:49.080Z,1636.00
2024-04-18T05:42:49.225Z,1520.00
2024-04-18T05:43:49.057Z,1404.00
2024-04-18T05:44:49.082Z,1240.00
2024-04-18T05:45:49.099Z,1136.00
2024-04-18T05:46:49.079Z,1184.00
2024-04-18T05:47:49.038Z,1204.00
2024-04-18T05:48:49.098Z,1164.00
2024-04-18T05:49:49.021Z,1136.00
2024-04-18T05:50:48.999Z,1188.00
2024-04-18T05:51:49.083Z,1344.00
2024-04-18T05:52:48.984Z,1480.00
2024-04-18T05:53:48.993Z,1548.00
2024-04-18T05:54:48.992Z,1612.00
2024-04-18T05:55:48.976Z,1696.00
2024-04-18T05:56:48.936Z,1736.00
2024-04-18T05:57:50.045Z,1832.00
2024-04-18T05:58:48.936Z,1948.00
2024-04-18T05:59:48.904Z,1956.00
2024-04-18T06:00:48.994Z,2060.00
2024-04-18T06:01:48.895Z,2188.00
2024-04-18T06:02:48.879Z,2336.00
2024-04-18T06:03:49.917Z,2596.00
2024-04-18T06:04:48.941Z,2836.00
2024-04-18T06:05:48.858Z,3140.00
2024-04-18T06:06:48.890Z,3484.00
2024-04-18T06:07:48.822Z,3976.00
2024-04-18T06:08:48.834Z,4336.00
2024-04-18T06:09:48.896Z,4672.00
2024-04-18T06:10:48.916Z,5132.00
2024-04-18T06:11:48.799Z,5252.00
2024-04-18T06:12:48.901Z,5148.00
2024-04-18T06:13:48.774Z,5020.00
2024-04-18T06:14:48.770Z,5124.00
2024-04-18T06:15:49.662Z,5304.00
2024-04-18T06:16:48.767Z,5196.00
2024-04-18T06:17:48.764Z,4876.00
2024-04-18T06:18:48.792Z,4492.00
2024-04-18T06:19:48.714Z,4036.00
2024-04-18T06:20:48.691Z,3508.00
2024-04-18T06:21:48.777Z,3016.00
2024-04-18T06:22:48.683Z,2668.00
2024-04-18T06:23:48.702Z,2476.00
2024-04-18T06:24:49.240Z,2376.00
2024-04-18T06:25:49.678Z,2388.00
2024-04-18T06:26:48.655Z,2456.00
2024-04-18T06:27:48.789Z,2500.00
2024-04-18T06:28:48.668Z,2592.00
2024-04-18T06:29:48.614Z,2672.00
2024-04-18T06:30:48.692Z,2700.00
2024-04-18T06:31:48.757Z,2776.00
2024-04-18T06:32:48.621Z,2748.00
2024-04-18T06:33:48.780Z,2704.00
2024-04-18T06:34:48.573Z,2640.00
2024-04-18T06:35:48.555Z,2848.00
2024-04-18T06:36:48.582Z,3180.00
2024-04-18T06:37:48.565Z,3336.00
2024-04-18T06:38:48.521Z,3308.00
2024-04-18T06:39:48.523Z,3088.00
2024-04-18T06:40:48.512Z,2808.00
2024-04-18T06:41:48.527Z,2532.00
2024-04-18T06:42:48.531Z,2332.00
2024-04-18T06:43:48.494Z,2140.00
2024-04-18T06:44:48.471Z,1972.00
2024-04-18T06:45:48.568Z,1864.00
2024-04-18T06:46:53.278Z,1828.00
2024-04-18T06:47:50.644Z,1844.00
2024-04-18T06:48:48.497Z,1880.00
2024-04-18T06:49:48.436Z,1964.00
2024-04-18T06:50:48.416Z,2048.00
2024-04-18T06:51:48.464Z,2088.00
2024-04-18T06:52:48.411Z,2080.00
2024-04-18T06:53:48.375Z,2060.00
2024-04-18T06:54:48.414Z,2092.00
2024-04-18T06:55:48.359Z,2124.00
2024-04-18T06:56:48.355Z,2164.00
2024-04-18T06:57:48.530Z,2212.00
2024-04-18T06:58:48.326Z,2364.00
2024-04-18T06:59:48.326Z,2684.00
2024-04-18T07:00:48.622Z,2848.00
2024-04-18T07:01:48.309Z,2916.00
2024-04-18T07:02:48.377Z,2832.00
2024-04-18T07:03:48.406Z,2760.00
2024-04-18T07:04:48.381Z,2712.00
2024-04-18T07:05:48.270Z,2712.00
2024-04-18T07:06:48.276Z,2748.00
2024-04-18T07:07:48.275Z,2696.00
2024-04-18T07:08:48.238Z,2708.00
2024-04-18T07:09:49.717Z,2704.00
2024-04-18T07:10:49.213Z,2836.00
2024-04-18T07:11:48.282Z,3096.00
2024-04-18T07:12:48.294Z,3288.00
2024-04-18T07:13:48.193Z,3460.00
2024-04-18T07:14:48.183Z,3784.00
2024-04-18T07:15:48.233Z,4160.00
2024-04-18T07:16:48.164Z,4396.00
2024-04-18T07:17:48.211Z,4420.00
2024-04-18T07:18:48.334Z,4656.00
2024-04-18T07:19:48.142Z,5416.00
2024-04-18T07:20:48.120Z,6344.00
2024-04-18T07:21:48.155Z,6152.00
2024-04-18T07:22:48.104Z,5152.00
2024-04-18T07:23:48.111Z,4144.00
2024-04-18T07:24:48.076Z,3476.00
2024-04-18T07:25:48.112Z,3216.00
2024-04-18T07:26:48.126Z,3076.00
2024-04-18T07:27:48.070Z,2872.00
2024-04-18T07:28:49.078Z,2708.00
2024-04-18T07:29:48.027Z,2620.00
2024-04-18T07:30:48.091Z,2500.00
2024-04-18T07:31:48.010Z,2392.00
2024-04-18T07:32:48.250Z,2252.00
2024-04-18T07:33:48.054Z,2108.00
2024-04-18T07:34:47.990Z,2008.00
2024-04-18T07:35:47.968Z,1976.00
2024-04-18T07:36:48.046Z,2008.00
2024-04-18T07:37:47.947Z,2076.00
2024-04-18T07:38:47.930Z,2176.00
2024-04-18T07:39:47.928Z,2296.00
2024-04-18T07:40:47.927Z,2360.00
2024-04-18T07:41:47.945Z,2372.00
2024-04-18T07:42:47.935Z,2460.00
2024-04-18T07:43:47.887Z,2628.00
2024-04-18T07:44:47.898Z,2760.00
2024-04-18T07:45:47.935Z,2844.00
2024-04-18T07:46:47.851Z,2896.00
2024-04-18T07:47:47.900Z,2944.00
2024-04-18T07:48:47.923Z,3036.00
2024-04-18T07:49:49.476Z,3128.00
2024-04-18T07:50:48.831Z,3260.00
2024-04-18T07:51:47.820Z,3452.00
2024-04-18T07:52:56.570Z,3852.00
2024-04-18T07:53:48.791Z,4608.00
2024-04-18T07:54:47.809Z,5848.00
2024-04-18T07:55:47.771Z,7812.00
2024-04-18T07:56:48.106Z,10228.00
2024-04-18T07:57:48.184Z,13100.00
2024-04-18T07:58:48.227Z,17536.00
2024-04-18T07:59:48.535Z,24768.00
2024-04-18T08:00:48.730Z,52320.00
2024-04-18T08:01:49.110Z,20480.00
2024-04-18T08:02:50.795Z,23648.00
2024-04-18T08:03:56.810Z,43232.00
2024-04-18T08:04:55.564Z,22848.00
2024-04-18T08:05:51.798Z,22112.00
2024-04-18T08:06:50.347Z,19744.00
2024-04-18T08:07:49.988Z,25056.00
2024-04-18T08:08:51.456Z,29312.00
2024-04-18T08:09:51.164Z,49408.00
2024-04-18T08:11:08.198Z,25344.00
2024-04-18T08:12:51.340Z,10764.00
2024-04-18T08:13:52.468Z,9996.00
2024-04-18T08:14:51.013Z,8764.00
2024-04-18T08:16:48.623Z,8124.00
2024-04-18T08:17:47.586Z,8188.00
2024-04-18T08:18:47.548Z,8480.00
2024-04-18T08:19:47.541Z,9208.00
2024-04-18T08:20:47.530Z,10224.00
2024-04-18T08:21:47.517Z,10744.00
2024-04-18T08:22:47.531Z,10848.00
2024-04-18T08:23:47.493Z,11140.00
2024-04-18T08:24:47.488Z,11136.00
2024-04-18T08:25:47.476Z,9972.00
2024-04-18T08:26:47.470Z,9820.00
2024-04-18T08:27:47.481Z,8540.00
2024-04-18T08:28:47.457Z,7172.00
2024-04-18T08:29:47.451Z,6948.00
2024-04-18T08:30:47.527Z,7056.00
2024-04-18T08:31:47.446Z,7572.00
2024-04-18T08:32:47.452Z,8760.00
2024-04-18T08:33:54.368Z,10396.00
2024-04-18T08:34:48.845Z,11988.00
2024-04-18T08:35:47.382Z,13272.00
2024-04-18T08:36:47.370Z,14540.00
2024-04-18T08:37:47.392Z,31424.00
2024-04-18T08:38:47.371Z,16160.00
2024-04-18T08:39:48.083Z,12428.00
2024-04-18T08:40:47.344Z,11816.00
2024-04-18T08:41:47.643Z,11768.00
2024-04-18T08:42:48.610Z,11184.00
2024-04-18T08:43:52.089Z,13900.00
2024-04-18T08:45:19.279Z,14940.00
2024-04-18T08:45:47.327Z,9564.00
2024-04-18T08:46:47.294Z,9384.00
2024-04-18T08:47:47.410Z,9428.00
2024-04-18T08:48:47.464Z,9660.00
2024-04-18T08:49:47.329Z,9928.00
2024-04-18T08:50:48.291Z,10100.00
2024-04-18T08:51:47.307Z,10176.00
2024-04-18T08:52:47.290Z,10284.00
2024-04-18T08:53:47.253Z,10484.00
2024-04-18T08:54:47.520Z,10696.00
2024-04-18T08:55:47.275Z,10996.00
2024-04-18T08:56:47.222Z,11680.00
2024-04-18T08:57:47.210Z,12636.00
2024-04-18T08:58:47.207Z,13312.00
2024-04-18T08:59:47.201Z,14556.00
2024-04-18T09:00:47.233Z,14064.00
2024-04-18T09:01:47.170Z,13904.00
2024-04-18T09:02:47.239Z,14760.00
2024-04-18T09:03:48.183Z,22720.00
2024-04-18T09:04:47.263Z,13452.00
2024-04-18T09:05:47.119Z,14436.00
2024-04-18T09:06:47.147Z,26720.00
2024-04-18T09:07:47.144Z,25664.00
2024-04-18T09:08:47.104Z,24416.00
2024-04-18T09:09:47.200Z,18688.00
2024-04-18T09:10:47.139Z,23712.00
2024-04-18T09:11:47.071Z,13456.00
2024-04-18T09:12:47.066Z,29344.00
2024-04-18T09:13:47.041Z,13232.00
2024-04-18T09:14:47.050Z,11736.00
2024-04-18T09:15:47.045Z,14528.00
2024-04-18T09:16:47.047Z,12828.00
2024-04-18T09:17:47.114Z,11156.00
2024-04-18T09:18:47.146Z,11336.00
2024-04-18T09:19:46.977Z,12284.00
2024-04-18T09:20:47.011Z,13268.00
2024-04-18T09:21:46.983Z,14288.00
2024-04-18T09:22:46.932Z,16608.00
2024-04-18T09:23:46.949Z,41664.00
2024-04-18T09:24:46.959Z,25280.00
2024-04-18T09:25:46.911Z,30656.00
2024-04-18T09:26:46.914Z,16032.00
2024-04-18T09:27:46.912Z,10824.00
2024-04-18T09:28:46.900Z,11724.00
2024-04-18T09:29:46.877Z,11600.00
2024-04-18T09:30:46.882Z,8408.00
2024-04-18T09:31:46.895Z,7068.00
2024-04-18T09:32:46.877Z,6684.00
2024-04-18T09:33:47.019Z,5528.00
2024-04-18T09:34:46.949Z,4972.00
2024-04-18T09:35:46.814Z,4636.00
2024-04-18T09:36:46.856Z,4412.00
2024-04-18T09:37:53.159Z,4124.00
2024-04-18T09:38:48.772Z,3928.00
2024-04-18T09:39:46.826Z,3908.00
2024-04-18T09:40:46.764Z,4008.00
2024-04-18T09:41:46.745Z,4132.00
2024-04-18T09:42:46.810Z,4292.00
2024-04-18T09:43:46.744Z,4404.00
2024-04-18T09:44:46.808Z,4460.00
2024-04-18T09:45:46.733Z,4400.00
2024-04-18T09:46:46.760Z,4420.00
2024-04-18T09:47:47.555Z,4656.00
2024-04-18T09:48:47.026Z,5056.00
2024-04-18T09:49:46.686Z,5556.00
2024-04-18T09:50:46.681Z,6188.00
2024-04-18T09:51:46.725Z,6672.00
2024-04-18T09:52:46.690Z,7148.00
2024-04-18T09:53:46.658Z,7552.00
2024-04-18T09:54:47.811Z,7764.00
2024-04-18T09:55:46.669Z,7924.00
2024-04-18T09:56:46.692Z,7768.00
2024-04-18T09:57:46.601Z,7348.00
2024-04-18T09:58:46.658Z,6916.00
2024-04-18T09:59:46.582Z,6612.00
2024-04-18T10:00:46.600Z,6308.00
2024-04-18T10:01:46.625Z,6064.00
2024-04-18T10:02:46.623Z,5696.00
2024-04-18T10:03:46.665Z,5440.00
2024-04-18T10:04:46.696Z,5360.00
2024-04-18T10:05:46.571Z,5432.00
2024-04-18T10:06:46.562Z,5640.00
2024-04-18T10:07:46.555Z,6032.00
2024-04-18T10:08:46.524Z,6468.00
2024-04-18T10:09:46.531Z,7268.00
2024-04-18T10:10:46.608Z,8068.00
2024-04-18T10:11:46.505Z,8576.00
2024-04-18T10:12:46.552Z,8696.00
2024-04-18T10:13:46.457Z,8492.00
2024-04-18T10:14:46.508Z,8588.00
2024-04-18T10:15:46.451Z,9004.00
2024-04-18T10:16:46.421Z,9688.00
2024-04-18T10:17:46.493Z,10136.00
2024-04-18T10:18:47.806Z,10388.00
2024-04-18T10:19:46.421Z,10932.00
2024-04-18T10:20:46.384Z,11752.00
2024-04-18T10:22:48.301Z,14312.00
2024-04-18T10:23:46.364Z,17792.00
2024-04-18T10:24:46.367Z,17408.00
2024-04-18T10:25:46.383Z,16960.00
2024-04-18T10:26:46.379Z,15664.00
2024-04-18T10:27:46.413Z,16544.00
2024-04-18T10:28:46.351Z,16384.00
2024-04-18T10:29:46.316Z,16256.00
2024-04-18T10:30:46.327Z,16512.00
2024-04-18T10:31:46.362Z,17024.00
2024-04-18T10:32:46.409Z,17728.00
2024-04-18T10:33:46.428Z,18720.00
2024-04-18T10:34:46.274Z,20224.00
2024-04-18T10:35:46.272Z,21088.00
2024-04-18T10:36:46.357Z,18656.00
2024-04-18T10:37:46.235Z,19360.00
2024-04-18T10:38:46.275Z,17632.00
2024-04-18T10:39:46.261Z,14480.00
2024-04-18T10:40:46.282Z,14584.00
2024-04-18T10:41:46.229Z,14108.00
2024-04-18T10:42:46.293Z,13392.00
2024-04-18T10:43:46.221Z,12468.00
2024-04-18T10:44:46.178Z,11444.00
2024-04-18T10:45:46.221Z,10548.00
2024-04-18T10:46:46.124Z,10176.00
2024-04-18T10:47:46.227Z,11452.00
2024-04-18T10:48:46.297Z,10176.00
2024-04-18T10:49:46.135Z,9908.00
2024-04-18T10:50:46.199Z,10104.00
2024-04-18T10:51:46.101Z,10544.00
2024-04-18T10:52:46.099Z,10996.00
2024-04-18T10:53:46.137Z,11460.00
2024-04-18T10:54:46.155Z,11728.00
2024-04-18T10:55:46.113Z,11896.00
2024-04-18T10:56:46.091Z,11976.00
2024-04-18T10:57:46.082Z,11784.00
2024-04-18T10:58:46.046Z,11764.00
2024-04-18T10:59:46.062Z,13200.00
2024-04-18T11:00:46.114Z,11472.00
2024-04-18T11:01:46.092Z,11388.00
2024-04-18T11:02:46.106Z,11344.00
2024-04-18T11:03:46.182Z,14476.00
2024-04-18T11:04:46.114Z,10992.00
2024-04-18T11:05:45.991Z,14112.00
2024-04-18T11:06:46.030Z,14284.00
2024-04-18T11:07:45.950Z,14400.00
2024-04-18T11:08:45.956Z,14404.00
2024-04-18T11:09:45.941Z,14344.00
2024-04-18T11:10:45.926Z,14292.00
2024-04-18T11:11:45.895Z,14244.00
2024-04-18T11:12:45.888Z,14076.00
2024-04-18T11:13:45.914Z,13824.00
2024-04-18T11:14:46.007Z,13716.00
2024-04-18T11:15:45.903Z,13604.00
2024-04-18T11:16:45.879Z,13864.00
2024-04-18T11:17:45.961Z,14048.00
2024-04-18T11:18:46.007Z,14220.00
2024-04-18T11:19:45.842Z,13668.00
2024-04-18T11:20:45.834Z,10324.00
2024-04-18T11:21:45.814Z,8328.00
2024-04-18T11:22:48.075Z,7932.00
2024-04-18T11:23:51.539Z,7768.00
2024-04-18T11:24:46.879Z,7648.00
2024-04-18T11:25:45.757Z,7580.00
2024-04-18T11:26:45.739Z,7568.00
2024-04-18T11:27:45.749Z,7564.00
2024-04-18T11:28:45.732Z,7680.00
2024-04-18T11:29:45.726Z,8044.00
2024-04-18T11:30:45.756Z,8524.00
2024-04-18T11:31:45.730Z,8976.00
2024-04-18T11:32:45.794Z,9372.00
2024-04-18T11:33:45.733Z,9784.00
2024-04-18T11:34:47.153Z,10236.00
2024-04-18T11:35:45.664Z,10660.00
2024-04-18T11:36:45.714Z,11028.00
2024-04-18T11:37:45.614Z,11456.00
2024-04-18T11:38:45.616Z,11852.00
2024-04-18T11:39:45.667Z,12224.00
2024-04-18T11:40:45.624Z,12708.00
2024-04-18T11:41:45.616Z,13104.00
2024-04-18T11:42:45.690Z,13412.00
2024-04-18T11:43:45.571Z,13596.00
2024-04-18T11:44:45.570Z,13600.00
2024-04-18T11:45:45.580Z,13576.00
2024-04-18T11:46:45.569Z,13128.00
2024-04-18T11:47:45.614Z,13188.00
2024-04-18T11:48:45.610Z,14684.00
2024-04-18T11:49:45.522Z,14708.00
2024-04-18T11:50:45.489Z,15936.00
2024-04-18T11:51:45.512Z,15776.00
2024-04-18T11:52:45.470Z,14520.00
2024-04-18T11:53:45.498Z,12252.00
2024-04-18T11:54:45.475Z,12080.00
2024-04-18T11:55:45.450Z,12076.00
2024-04-18T11:56:45.465Z,12380.00
2024-04-18T11:57:45.437Z,12408.00
2024-04-18T11:58:45.446Z,11672.00
2024-04-18T11:59:45.434Z,11144.00
2024-04-18T12:00:45.506Z,10776.00
2024-04-18T12:01:45.408Z,10588.00
2024-04-18T12:02:45.385Z,10504.00
2024-04-18T12:03:45.442Z,10484.00
2024-04-18T12:04:45.387Z,10296.00
2024-04-18T12:05:45.474Z,10380.00
2024-04-18T12:06:45.442Z,10796.00
2024-04-18T12:07:45.387Z,11292.00
2024-04-18T12:08:46.312Z,11672.00
2024-04-18T12:09:45.353Z,12048.00
2024-04-18T12:10:45.322Z,12164.00
2024-04-18T12:11:45.391Z,12004.00
2024-04-18T12:12:45.318Z,11820.00
2024-04-18T12:13:45.318Z,11728.00
2024-04-18T12:14:45.291Z,11568.00
2024-04-18T12:15:45.396Z,11344.00
2024-04-18T12:16:45.300Z,11248.00
2024-04-18T12:17:45.278Z,11048.00
2024-04-18T12:18:45.324Z,10912.00
2024-04-18T12:19:45.425Z,10876.00
2024-04-18T12:20:45.250Z,10920.00
2024-04-18T12:21:45.244Z,11192.00
2024-04-18T12:22:45.201Z,11576.00
2024-04-18T12:23:45.174Z,11924.00
2024-04-18T12:24:45.225Z,12040.00
2024-04-18T12:25:45.180Z,12012.00
2024-04-18T12:26:45.168Z,11948.00
2024-04-18T12:27:45.173Z,11760.00
2024-04-18T12:28:45.142Z,11488.00